Estación Meteorológica Peña el Pijo (Robertgarden) [ 02/02/23 21:26:03 CET ]

Fecha Hora Presion(HPa) Temp (°C) Humedad % Rocio (°C) Viento ( m/s) Direccion Lluvia 1Hora(mm) Lluvia 24H(mm) LLuvia Total(mm)
2010-Jan-04 01:01:12 1005.900 6.5 90 5.0         61.12
2010-Jan-04 02:03:14 1004.600 6.1 91 4.8         61.12
2010-Jan-04 03:01:14 1004.500 6.2 92 5.0         61.12
2010-Jan-04 04:01:12 1004.500 7.8 92 6.6     1.03 1.03 62.16
2010-Jan-04 05:01:14 1003.500 6.1 92 4.9       1.03 62.16
2010-Jan-04 06:01:14 1003.100 4.9 92 3.7       1.03 62.16
2010-Jan-04 07:01:12 1002.600 4.9 93 3.9       1.03 62.16
2010-Jan-04 08:01:13 1002.300 4.1 93 3.0       1.03 62.16
2010-Jan-04 09:01:17 1002.300 3.6 93 2.5       1.03 62.16
2010-Jan-04 10:01:14 1002.000 5.4 95 4.7       1.03 62.16
2010-Jan-04 11:01:13 1001.600 7.3 95 6.5       1.03 62.16
2010-Jan-04 12:01:12 1001.300 8.5 94 7.6       1.03 62.16
2010-Jan-04 13:01:16 999.500 11.9 84 9.3       1.03 62.16
2010-Jan-04 14:01:18 998.000 10.4 85 8.0       1.03 62.16
2010-Jan-04 15:01:16 997.900 9.4 86 7.2       1.03 62.16
2010-Jan-04 16:01:13 997.000 10.8 80 7.5       1.03 62.16
2010-Jan-04 17:01:17 996.800 9.3 80 6.0       1.03 62.16
2010-Jan-04 18:01:14 996.800 8.4 80 5.2       1.03 62.16
2010-Jan-04 19:01:16 997.000 6.4 85 4.0       1.03 62.16
2010-Jan-04 20:01:11 996.500 4.9 88 3.1       1.03 62.16
2010-Jan-04 21:01:13 996.500 3.9 91 2.5       1.03 62.16
2010-Jan-04 22:01:13 995.700 2.9 91 1.6       1.03 62.16
2010-Jan-04 23:01:13 995.500 2.9 93 1.9       1.03 62.16

Temperatura Máxima:11°    Temperatura Mínima:
Presión Máxima:1005.900 Hpa    Presión Mínima:995.500 Hpa


Volver